createdAt,value
2022-11-12T00:02:42.890Z,12.50
2022-11-12T00:05:28.427Z,12.75
2022-11-12T00:08:13.665Z,12.35
2022-11-12T00:10:58.815Z,14.10
2022-11-12T00:13:44.065Z,15.05
2022-11-12T00:16:29.396Z,14.50
2022-11-12T00:19:14.638Z,12.65
2022-11-12T00:22:00.025Z,12.80
2022-11-12T00:24:45.571Z,15.50
2022-11-12T00:27:34.325Z,11.68
2022-11-12T00:30:19.591Z,18.23
2022-11-12T00:33:05.315Z,13.55
2022-11-12T00:35:50.544Z,13.45
2022-11-12T00:38:35.976Z,12.70
2022-11-12T00:41:21.289Z,14.55
2022-11-12T00:44:06.502Z,16.02
2022-11-12T00:46:51.939Z,15.73
2022-11-12T00:49:37.043Z,16.00
2022-11-12T00:52:22.287Z,16.05
2022-11-12T00:55:07.734Z,18.52
2022-11-12T00:57:52.810Z,13.30
2022-11-12T01:00:38.211Z,15.93
2022-11-12T01:03:23.691Z,15.85
2022-11-12T01:06:15.401Z,14.70
2022-11-12T01:09:00.543Z,15.40
2022-11-12T01:11:45.867Z,18.80
2022-11-12T01:14:31.097Z,14.75
2022-11-12T01:17:16.177Z,15.38
2022-11-12T01:20:01.876Z,15.18
2022-11-12T01:22:47.305Z,11.18
2022-11-12T01:25:32.390Z,18.35
2022-11-12T01:28:17.662Z,13.40
2022-11-12T01:31:20.794Z,12.80
2022-11-12T01:34:08.809Z,14.18
2022-11-12T01:36:54.397Z,15.32
2022-11-12T01:39:39.537Z,18.30
2022-11-12T01:42:29.427Z,14.77
2022-11-12T01:45:15.873Z,15.35
2022-11-12T01:48:01.536Z,16.13
2022-11-12T01:50:46.978Z,13.68
2022-11-12T01:53:36.803Z,16.30
2022-11-12T01:56:23.774Z,16.58
2022-11-12T01:59:15.295Z,17.23
2022-11-12T02:02:00.431Z,15.43
2022-11-12T02:04:46.871Z,17.67
2022-11-12T02:07:33.088Z,16.67
2022-11-12T02:10:19.811Z,15.82
2022-11-12T02:13:24.383Z,14.10
2022-11-12T02:16:10.830Z,13.55
2022-11-12T02:18:55.912Z,15.65
2022-11-12T02:21:41.972Z,19.33
2022-11-12T02:24:27.109Z,20.77
2022-11-12T02:27:12.473Z,15.60
2022-11-12T02:29:57.953Z,16.60
2022-11-12T02:32:43.329Z,18.48
2022-11-12T02:35:28.731Z,14.60
2022-11-12T02:38:13.973Z,18.05
2022-11-12T02:40:59.280Z,18.88
2022-11-12T02:43:44.863Z,18.25
2022-11-12T02:46:30.054Z,17.50
2022-11-12T02:49:15.417Z,17.67
2022-11-12T02:52:00.667Z,18.48
2022-11-12T02:54:45.914Z,16.15
2022-11-12T02:57:31.128Z,20.30
2022-11-12T03:00:18.169Z,14.73
2022-11-12T03:03:03.382Z,16.90
2022-11-12T03:05:56.905Z,13.63
2022-11-12T03:08:41.786Z,14.93
2022-11-12T03:11:27.636Z,16.90
2022-11-12T03:14:12.971Z,18.08
2022-11-12T03:16:58.203Z,18.55
2022-11-12T03:19:43.582Z,14.50
2022-11-12T03:22:28.836Z,12.25
2022-11-12T03:25:14.088Z,11.93
2022-11-12T03:28:09.336Z,11.68
2022-11-12T03:30:59.009Z,13.35
2022-11-12T03:33:44.011Z,11.55
2022-11-12T03:36:29.211Z,17.05
2022-11-12T03:39:14.697Z,12.60
2022-11-12T03:41:59.838Z,14.60
2022-11-12T03:44:45.108Z,13.60
2022-11-12T03:47:30.034Z,11.23
2022-11-12T03:50:17.034Z,10.40
2022-11-12T03:53:02.085Z,14.27
2022-11-12T03:55:47.374Z,12.90
2022-11-12T03:58:32.623Z,13.63
2022-11-12T04:01:17.721Z,12.05
2022-11-12T04:04:03.000Z,13.05
2022-11-12T04:07:06.918Z,13.15
2022-11-12T04:09:52.044Z,13.55
2022-11-12T04:12:55.591Z,10.30
2022-11-12T04:15:40.973Z,11.98
2022-11-12T04:18:55.494Z,13.13
2022-11-12T04:21:56.454Z,13.90
2022-11-12T04:25:01.708Z,15.52
2022-11-12T04:27:47.091Z,11.50
2022-11-12T04:30:32.355Z,11.25
2022-11-12T04:33:17.415Z,17.02
2022-11-12T04:36:02.806Z,13.35
2022-11-12T04:38:47.973Z,17.38
2022-11-12T04:41:51.780Z,13.75
2022-11-12T04:44:55.592Z,12.30
2022-11-12T04:47:43.882Z,14.55
2022-11-12T04:50:29.196Z,12.68
2022-11-12T04:53:15.088Z,12.95
2022-11-12T04:55:59.971Z,15.27
2022-11-12T04:58:45.192Z,14.27
2022-11-12T05:01:30.465Z,14.35
2022-11-12T05:04:16.023Z,11.43
2022-11-12T05:07:01.506Z,9.20
2022-11-12T05:09:46.505Z,16.98
2022-11-12T05:12:31.720Z,12.45
2022-11-12T05:15:16.830Z,12.07
2022-11-12T05:18:02.184Z,12.73
2022-11-12T05:20:47.337Z,8.70
2022-11-12T05:23:32.531Z,10.95
2022-11-12T05:26:17.869Z,9.48
2022-11-12T05:29:08.465Z,9.77
2022-11-12T05:31:54.426Z,10.60
2022-11-12T05:34:39.485Z,10.95
2022-11-12T05:37:24.852Z,12.13
2022-11-12T05:40:10.384Z,12.88
2022-11-12T05:42:55.340Z,11.10
2022-11-12T05:45:43.565Z,12.52
2022-11-12T05:48:29.379Z,9.40
2022-11-12T05:51:14.860Z,8.98
2022-11-12T05:54:00.546Z,8.82
2022-11-12T05:56:45.929Z,9.90
2022-11-12T05:59:30.921Z,10.48
2022-11-12T06:02:16.213Z,10.18
2022-11-12T06:05:01.237Z,11.45
2022-11-12T06:07:46.471Z,8.40
2022-11-12T06:10:33.184Z,7.65
2022-11-12T06:13:18.770Z,10.88
2022-11-12T06:16:04.303Z,8.70
2022-11-12T06:18:49.506Z,12.05
2022-11-12T06:21:34.828Z,9.43
2022-11-12T06:24:20.546Z,14.82
2022-11-12T06:27:05.787Z,12.80
2022-11-12T06:29:51.312Z,19.58
2022-11-12T06:32:36.809Z,12.27
2022-11-12T06:35:21.655Z,16.27
2022-11-12T06:38:06.747Z,12.30
2022-11-12T06:40:51.981Z,14.90
2022-11-12T06:43:37.621Z,17.70
2022-11-12T06:46:23.075Z,15.68
2022-11-12T06:49:08.181Z,17.60
2022-11-12T06:51:53.605Z,11.38
2022-11-12T06:54:38.984Z,20.10
2022-11-12T06:57:24.271Z,14.70
2022-11-12T07:00:11.776Z,13.48
2022-11-12T07:02:56.784Z,10.68
2022-11-12T07:05:41.943Z,14.48
2022-11-12T07:08:27.422Z,13.45
2022-11-12T07:11:13.436Z,19.13
2022-11-12T07:13:58.759Z,15.80
2022-11-12T07:16:44.172Z,15.18
2022-11-12T07:19:29.540Z,13.60
2022-11-12T07:22:14.906Z,16.13
2022-11-12T07:25:00.254Z,14.10
2022-11-12T07:27:45.437Z,18.13
2022-11-12T07:30:30.725Z,21.13
2022-11-12T07:33:15.770Z,21.17
2022-11-12T07:36:03.925Z,17.05
2022-11-12T07:38:52.383Z,16.35
2022-11-12T07:41:37.247Z,26.08
2022-11-12T07:44:22.279Z,24.30
2022-11-12T07:47:07.682Z,22.42
2022-11-12T07:49:52.854Z,29.40
2022-11-12T07:52:38.236Z,27.92
2022-11-12T07:55:23.384Z,24.83
2022-11-12T07:58:08.718Z,28.33
2022-11-12T08:00:54.129Z,29.50
2022-11-12T08:03:39.049Z,27.77
2022-11-12T08:06:24.352Z,24.30
2022-11-12T08:09:10.172Z,24.25
2022-11-12T08:11:55.084Z,26.92
2022-11-12T08:14:48.199Z,27.15
2022-11-12T08:17:37.777Z,23.50
2022-11-12T08:20:23.204Z,28.55
2022-11-12T08:23:09.480Z,25.27
2022-11-12T08:26:01.109Z,22.05
2022-11-12T08:28:46.917Z,20.42
2022-11-12T08:31:32.287Z,22.48
2022-11-12T08:34:22.472Z,16.60
2022-11-12T08:37:08.219Z,21.88
2022-11-12T08:39:53.539Z,13.48
2022-11-12T08:42:39.099Z,14.23
2022-11-12T08:45:24.574Z,15.77
2022-11-12T08:48:14.425Z,17.45
2022-11-12T08:51:02.488Z,18.85
2022-11-12T08:53:47.970Z,17.67
2022-11-12T08:56:34.051Z,17.60
2022-11-12T08:59:18.967Z,14.57
2022-11-12T09:02:04.019Z,13.25
2022-11-12T09:04:49.315Z,18.55
2022-11-12T09:07:49.311Z,21.15
2022-11-12T09:10:36.473Z,26.15
2022-11-12T09:13:22.048Z,27.88
2022-11-12T09:16:09.051Z,35.92
2022-11-12T09:18:54.025Z,35.30
2022-11-12T09:21:39.736Z,36.78
2022-11-12T09:24:24.912Z,34.20
2022-11-12T09:27:10.315Z,37.53
2022-11-12T09:29:55.793Z,32.03
2022-11-12T09:32:41.207Z,34.05
2022-11-12T09:35:26.699Z,33.30
2022-11-12T09:38:12.238Z,30.77
2022-11-12T09:41:09.538Z,25.63
2022-11-12T09:44:01.228Z,28.30
2022-11-12T09:47:02.522Z,25.95
2022-11-12T09:50:22.770Z,17.45
2022-11-12T09:53:37.083Z,14.52
2022-11-12T09:56:26.144Z,14.82
2022-11-12T09:59:13.186Z,12.27
2022-11-12T10:02:16.942Z,9.90
2022-11-12T10:05:32.383Z,13.98
2022-11-12T10:08:20.197Z,7.28
2022-11-12T10:11:20.496Z,9.20
2022-11-12T10:14:34.570Z,7.82
2022-11-12T10:17:41.807Z,7.00
2022-11-12T10:20:38.764Z,7.55
2022-11-12T10:23:36.868Z,5.90
2022-11-12T10:26:24.705Z,7.05
2022-11-12T10:29:32.485Z,7.75
2022-11-12T10:32:17.732Z,7.60
2022-11-12T10:35:03.761Z,7.53
2022-11-12T10:38:19.859Z,9.02
2022-11-12T10:41:32.368Z,9.20
2022-11-12T10:44:26.218Z,6.00
2022-11-12T10:47:32.477Z,6.97
2022-11-12T10:50:21.973Z,6.28
2022-11-12T10:53:10.260Z,6.93
2022-11-12T10:56:04.013Z,10.70
2022-11-12T10:59:14.799Z,6.88
2022-11-12T11:02:01.261Z,7.45
2022-11-12T11:04:46.613Z,7.97
2022-11-12T11:07:31.796Z,10.90
2022-11-12T11:10:46.454Z,8.10
2022-11-12T11:13:31.695Z,8.20
2022-11-12T11:16:28.892Z,5.88
2022-11-12T11:19:13.983Z,9.38
2022-11-12T11:22:13.333Z,9.80
2022-11-12T11:28:14.203Z,6.50
2022-11-12T11:31:07.432Z,6.75
2022-11-12T11:34:15.967Z,11.55
2022-11-12T11:37:06.244Z,5.10
2022-11-12T11:39:55.903Z,7.68
2022-11-12T11:43:03.075Z,5.63
2022-11-12T11:46:00.240Z,8.68
2022-11-12T11:49:24.548Z,5.88
2022-11-12T11:52:18.671Z,8.25
2022-11-12T11:55:09.708Z,10.57
2022-11-12T11:58:40.050Z,9.10
2022-11-12T12:01:56.232Z,6.63
2022-11-12T12:05:05.783Z,5.53
2022-11-12T12:08:06.335Z,7.15
2022-11-12T12:11:12.076Z,8.05
2022-11-12T12:14:09.505Z,5.68
2022-11-12T12:17:26.647Z,4.63
2022-11-12T12:20:22.533Z,4.22
2022-11-12T12:23:30.574Z,3.78
2022-11-12T12:26:32.828Z,5.55
2022-11-12T12:29:42.009Z,6.47
2022-11-12T12:32:32.843Z,4.03
2022-11-12T12:35:31.466Z,5.47
2022-11-12T12:38:38.855Z,4.07
2022-11-12T12:41:32.796Z,7.35
2022-11-12T12:44:18.222Z,5.88
2022-11-12T12:47:04.019Z,3.80
2022-11-12T12:49:51.385Z,4.38
2022-11-12T12:53:05.512Z,5.07
2022-11-12T12:55:54.857Z,6.50
2022-11-12T13:01:32.146Z,9.02
2022-11-12T13:04:17.141Z,6.05
2022-11-12T13:07:05.304Z,5.32
2022-11-12T13:09:52.687Z,6.25
2022-11-12T13:13:15.520Z,3.83
2022-11-12T13:16:02.844Z,5.70
2022-11-12T13:18:50.755Z,4.93
2022-11-12T13:21:35.944Z,5.13
2022-11-12T13:25:04.710Z,8.05
2022-11-12T13:27:49.726Z,4.18
2022-11-12T13:30:35.126Z,4.53
2022-11-12T13:33:30.979Z,4.40
2022-11-12T13:36:27.862Z,4.70
2022-11-12T13:39:17.753Z,2.90
2022-11-12T13:42:31.486Z,3.50
2022-11-12T13:45:19.454Z,6.80
2022-11-12T13:48:15.154Z,2.85
2022-11-12T13:51:12.723Z,2.40
2022-11-12T13:53:58.431Z,5.45
2022-11-12T13:56:43.981Z,4.28
2022-11-12T13:59:29.297Z,3.42
2022-11-12T14:02:26.255Z,5.45
2022-11-12T14:05:17.867Z,8.13
2022-11-12T14:08:30.345Z,4.00
2022-11-12T14:11:36.816Z,4.07
2022-11-12T14:14:40.722Z,6.82
2022-11-12T14:17:52.105Z,3.53
2022-11-12T14:20:41.195Z,4.72
2022-11-12T14:23:26.718Z,3.22
2022-11-12T14:26:13.240Z,4.22
2022-11-12T14:28:59.250Z,2.50
2022-11-12T14:31:44.864Z,3.58
2022-11-12T14:34:33.059Z,7.93
2022-11-12T14:37:39.852Z,4.30
2022-11-12T14:40:29.460Z,3.97
2022-11-12T14:43:27.700Z,3.88
2022-11-12T14:46:29.088Z,6.53
2022-11-12T14:49:22.277Z,5.05
2022-11-12T14:52:13.610Z,6.10
2022-11-12T14:55:09.036Z,5.03
2022-11-12T14:57:58.700Z,3.50
2022-11-12T15:03:32.528Z,5.13
2022-11-12T15:06:29.550Z,7.57
2022-11-12T15:09:18.808Z,5.95
2022-11-12T15:15:08.550Z,6.65
2022-11-12T15:17:59.391Z,6.70
2022-11-12T15:20:45.229Z,6.10
2022-11-12T15:23:30.681Z,10.43
2022-11-12T15:26:33.657Z,4.88
2022-11-12T15:29:27.716Z,8.00
2022-11-12T15:32:14.146Z,8.27
2022-11-12T15:34:59.406Z,9.63
2022-11-12T15:37:44.779Z,10.10
2022-11-12T15:40:32.299Z,6.82
2022-11-12T15:43:21.417Z,8.57
2022-11-12T15:46:17.605Z,6.28
2022-11-12T15:49:02.657Z,6.35
2022-11-12T15:51:48.155Z,6.68
2022-11-12T15:54:36.872Z,7.22
2022-11-12T15:57:29.232Z,13.02
2022-11-12T16:00:19.866Z,9.15
2022-11-12T16:03:13.798Z,9.13
2022-11-12T16:06:02.653Z,11.43
2022-11-12T16:08:52.469Z,8.23
2022-11-12T16:11:37.876Z,10.40
2022-11-12T16:14:25.035Z,11.10
2022-11-12T16:17:16.233Z,12.98
2022-11-12T16:20:01.612Z,16.10
2022-11-12T16:22:47.979Z,13.95
2022-11-12T16:25:36.177Z,10.88
2022-11-12T16:28:21.114Z,11.82
2022-11-12T16:31:06.754Z,12.38
2022-11-12T16:33:52.384Z,15.50
2022-11-12T16:36:39.755Z,15.95
2022-11-12T16:39:25.315Z,17.23
2022-11-12T16:42:10.912Z,22.40
2022-11-12T16:44:55.799Z,19.92
2022-11-12T16:47:47.723Z,21.73
2022-11-12T16:50:33.188Z,21.75
2022-11-12T16:53:18.569Z,19.92
2022-11-12T16:56:04.081Z,15.93
2022-11-12T16:58:49.789Z,19.30
2022-11-12T17:01:35.141Z,13.57
2022-11-12T17:04:20.503Z,14.07
2022-11-12T17:07:05.926Z,13.38
2022-11-12T17:09:52.836Z,14.40
2022-11-12T17:12:38.011Z,12.88
2022-11-12T17:15:23.333Z,13.57
2022-11-12T17:18:09.673Z,14.15
2022-11-12T17:20:55.285Z,19.75
2022-11-12T17:23:42.261Z,17.95
2022-11-12T17:26:29.008Z,17.63
2022-11-12T17:29:14.213Z,20.30
2022-11-12T17:31:59.593Z,20.95
2022-11-12T17:34:44.766Z,21.65
2022-11-12T17:37:29.807Z,27.50
2022-11-12T17:40:15.602Z,35.70
2022-11-12T17:43:00.861Z,38.50
2022-11-12T17:45:53.664Z,33.90
2022-11-12T17:48:39.321Z,25.13
2022-11-12T17:51:26.776Z,28.00
2022-11-12T17:54:12.554Z,28.13
2022-11-12T17:56:58.042Z,24.13
2022-11-12T17:59:43.048Z,21.05
2022-11-12T18:02:28.308Z,20.08
2022-11-12T18:05:13.561Z,19.42
2022-11-12T18:07:59.066Z,23.25
2022-11-12T18:10:45.547Z,20.75
2022-11-12T18:13:31.088Z,21.92
2022-11-12T18:16:20.649Z,23.50
2022-11-12T18:19:05.963Z,21.38
2022-11-12T18:21:52.851Z,22.20
2022-11-12T18:24:37.953Z,22.13
2022-11-12T18:27:23.213Z,25.15
2022-11-12T18:30:08.944Z,25.05
2022-11-12T18:32:54.107Z,25.15
2022-11-12T18:35:39.353Z,26.30
2022-11-12T18:38:24.653Z,27.88
2022-11-12T18:41:12.139Z,30.38
2022-11-12T18:43:57.659Z,34.40
2022-11-12T18:46:43.252Z,30.63
2022-11-12T18:49:28.388Z,31.88
2022-11-12T18:52:13.855Z,36.40
2022-11-12T18:54:59.111Z,37.90
2022-11-12T18:57:44.453Z,36.55
2022-11-12T19:00:29.721Z,40.72
2022-11-12T19:03:14.936Z,41.17
2022-11-12T19:06:01.771Z,40.80
2022-11-12T19:08:47.842Z,44.92
2022-11-12T19:11:33.383Z,48.28
2022-11-12T19:14:18.759Z,42.47
2022-11-12T19:17:04.104Z,44.63
2022-11-12T19:19:49.572Z,41.30
2022-11-12T19:22:35.229Z,39.33
2022-11-12T19:25:20.686Z,37.58
2022-11-12T19:28:05.929Z,34.85
2022-11-12T19:30:54.814Z,31.00
2022-11-12T19:33:40.232Z,28.13
2022-11-12T19:36:26.267Z,26.05
2022-11-12T19:39:11.600Z,25.17
2022-11-12T19:41:57.128Z,22.80
2022-11-12T19:44:42.379Z,19.70
2022-11-12T19:47:27.662Z,20.50
2022-11-12T19:50:12.610Z,25.13
2022-11-12T19:52:58.059Z,25.60
2022-11-12T19:55:44.200Z,25.38
2022-11-12T19:58:31.780Z,28.00
2022-11-12T20:01:18.907Z,39.88
2022-11-12T20:04:04.490Z,35.63
2022-11-12T20:06:49.783Z,33.03
2022-11-12T20:09:35.018Z,33.00
2022-11-12T20:12:20.246Z,37.60
2022-11-12T20:15:06.378Z,37.13
2022-11-12T20:17:51.635Z,37.42
2022-11-12T20:20:37.079Z,43.10
2022-11-12T20:23:27.027Z,38.65
2022-11-12T20:26:15.001Z,35.88
2022-11-12T20:29:00.187Z,31.90
2022-11-12T20:31:45.765Z,33.67
2022-11-12T20:34:30.998Z,31.85
2022-11-12T20:37:16.408Z,28.92
2022-11-12T20:40:02.278Z,29.15
2022-11-12T20:42:47.666Z,30.10
2022-11-12T20:45:33.753Z,26.55
2022-11-12T20:48:20.214Z,24.98
2022-11-12T20:51:23.331Z,25.10
2022-11-12T20:54:10.603Z,27.17
2022-11-12T20:56:56.151Z,23.63
2022-11-12T20:59:41.244Z,26.45
2022-11-12T21:02:26.593Z,24.27
2022-11-12T21:05:12.354Z,23.38
2022-11-12T21:07:57.453Z,22.02
2022-11-12T21:10:42.941Z,27.27
2022-11-12T21:13:28.374Z,24.70
2022-11-12T21:16:14.604Z,23.98
2022-11-12T21:19:01.489Z,26.08
2022-11-12T21:21:46.598Z,22.67
2022-11-12T21:24:31.931Z,22.45
2022-11-12T21:27:17.135Z,25.33
2022-11-12T21:30:02.530Z,27.13
2022-11-12T21:32:48.903Z,26.42
2022-11-12T21:35:34.264Z,27.40
2022-11-12T21:38:19.311Z,24.50
2022-11-12T21:41:10.410Z,27.75
2022-11-12T21:43:55.623Z,30.42
2022-11-12T21:46:40.752Z,30.23
2022-11-12T21:49:26.083Z,30.73
2022-11-12T21:52:12.849Z,35.67
2022-11-12T21:54:57.872Z,36.33
2022-11-12T21:57:43.207Z,45.33
2022-11-12T22:00:41.715Z,47.38
2022-11-12T22:03:30.910Z,40.08
2022-11-12T22:06:17.224Z,26.73
2022-11-12T22:09:03.105Z,26.08
2022-11-12T22:11:48.423Z,24.05
2022-11-12T22:14:33.730Z,27.40
2022-11-12T22:17:18.930Z,20.42
2022-11-12T22:20:05.080Z,20.10
2022-11-12T22:22:51.670Z,20.05
2022-11-12T22:25:36.636Z,17.63
2022-11-12T22:28:22.128Z,20.05
2022-11-12T22:31:13.195Z,16.73
2022-11-12T22:34:00.319Z,18.15
2022-11-12T22:36:45.691Z,19.10
2022-11-12T22:39:31.074Z,16.67
2022-11-12T22:42:16.321Z,15.77
2022-11-12T22:45:01.640Z,15.27
2022-11-12T22:47:46.840Z,13.48
2022-11-12T22:50:32.251Z,17.38
2022-11-12T22:53:17.637Z,19.58
2022-11-12T22:56:05.102Z,25.25
2022-11-12T22:58:51.316Z,22.52
2022-11-12T23:01:36.573Z,23.17
2022-11-12T23:04:21.993Z,33.83
2022-11-12T23:07:07.563Z,30.70
2022-11-12T23:09:52.683Z,29.88
2022-11-12T23:12:38.036Z,22.27
2022-11-12T23:15:22.899Z,20.50
2022-11-12T23:18:08.335Z,18.85
2022-11-12T23:20:53.645Z,16.73
2022-11-12T23:23:38.986Z,17.63
2022-11-12T23:26:26.116Z,16.35
2022-11-12T23:29:11.981Z,18.23
2022-11-12T23:31:57.283Z,16.90
2022-11-12T23:34:42.656Z,17.35
2022-11-12T23:37:27.832Z,15.48
2022-11-12T23:40:13.345Z,12.55
2022-11-12T23:42:58.444Z,16.83
2022-11-12T23:45:43.671Z,22.45
2022-11-12T23:48:29.414Z,32.33
2022-11-12T23:51:20.126Z,28.65
2022-11-12T23:54:05.607Z,34.45
2022-11-12T23:56:50.924Z,34.08
2022-11-12T23:59:36.183Z,40.60
